Time;durP1;ratioP1;P1;durP2;ratioP2;P2;SDS_P1;SDS_P2;PMS_P1;PMS_P2;Temp;Humidity;BMP_temperature;BMP_pressure;BME280_temperature;BME280_humidity;BME280_pressure;Samples;Min_cycle;Max_cycle;Signal;HPM_P1;HPM_P2
2021/07/28 00:01:22;;;;;;;5.33;4.93;;;30.60;63.00;;;;;;5020344;28;20472;-26
2021/07/28 00:03:53;;;;;;;3.87;3.50;;;30.50;64.70;;;;;;5002862;28;20492;-27
2021/07/28 00:06:33;;;;;;;3.70;3.40;;;30.40;65.10;;;;;;5011715;28;20464;-27
2021/07/28 00:09:05;;;;;;;3.60;3.03;;;30.30;65.50;;;;;;5012590;28;20484;-27
2021/07/28 00:11:35;;;;;;;3.27;2.97;;;30.30;65.90;;;;;;5022589;28;20452;-28
2021/07/28 00:14:06;;;;;;;3.97;3.57;;;30.20;67.00;;;;;;5022006;28;20441;-28
2021/07/28 00:16:38;;;;;;;3.23;3.03;;;30.00;67.80;;;;;;5007445;28;20449;-28
2021/07/28 00:19:12;;;;;;;3.57;3.27;;;29.90;68.10;;;;;;5019241;28;20457;-27
2021/07/28 00:24:35;;;;;;;3.03;2.83;;;29.70;67.50;;;;;;5007689;28;20512;-27
2021/07/28 00:27:07;;;;;;;3.10;2.70;;;29.70;68.30;;;;;;5002945;28;20531;-27
2021/07/28 00:29:39;;;;;;;3.30;2.90;;;29.40;67.20;;;;;;5003979;28;20479;-27
2021/07/28 00:32:10;;;;;;;3.20;2.90;;;29.30;68.90;;;;;;5004717;28;20622;-27
2021/07/28 00:34:41;;;;;;;3.50;3.20;;;29.10;68.90;;;;;;5009297;28;20456;-27
2021/07/28 00:37:14;;;;;;;4.00;3.20;;;29.20;68.20;;;;;;5005497;28;20465;-27
2021/07/28 00:39:45;;;;;;;4.00;3.23;;;29.10;70.10;;;;;;5007876;28;20459;-27
2021/07/28 00:42:16;;;;;;;4.00;3.70;;;29.00;68.30;;;;;;5007699;28;20455;-27
2021/07/28 00:44:48;;;;;;;6.63;3.60;;;29.00;68.40;;;;;;5011849;28;20658;-27
2021/07/28 00:47:19;;;;;;;3.43;3.13;;;28.90;68.40;;;;;;5010767;28;20454;-27
2021/07/28 00:49:50;;;;;;;3.83;3.53;;;28.90;70.20;;;;;;5007574;28;20480;-27
2021/07/28 00:52:22;;;;;;;6.93;3.93;;;28.90;70.90;;;;;;5025068;28;20948;-27
2021/07/28 00:54:54;;;;;;;3.60;3.30;;;29.00;68.50;;;;;;5025132;28;20463;-27
2021/07/28 00:57:25;;;;;;;4.17;3.77;;;29.00;69.30;;;;;;5010519;28;20472;-26
2021/07/28 00:59:57;;;;;;;3.67;3.13;;;29.10;70.20;;;;;;5006165;28;20438;-27
2021/07/28 01:02:27;;;;;;;5.40;3.80;;;29.10;69.80;;;;;;5011072;28;20451;-27
2021/07/28 01:04:59;;;;;;;4.40;3.97;;;29.20;67.70;;;;;;5005863;28;20487;-27
2021/07/28 01:07:32;;;;;;;4.23;3.83;;;29.20;65.10;;;;;;5021243;28;20467;-27
2021/07/28 01:10:03;;;;;;;7.97;7.23;;;29.00;65.00;;;;;;5006412;28;20466;-27
2021/07/28 01:12:34;;;;;;;7.70;6.47;;;29.00;66.00;;;;;;5016687;28;20488;-27
2021/07/28 01:15:06;;;;;;;9.50;9.00;;;28.90;65.40;;;;;;5024952;28;20477;-27
2021/07/28 01:17:37;;;;;;;43.20;39.20;;;28.90;66.30;;;;;;5006713;28;20442;-27
2021/07/28 01:20:10;;;;;;;9.27;8.47;;;28.90;64.00;;;;;;5005998;28;20490;-27
2021/07/28 01:22:42;;;;;;;4.63;4.13;;;28.80;65.50;;;;;;5017071;28;20450;-26
2021/07/28 01:25:15;;;;;;;4.80;4.30;;;28.80;63.10;;;;;;5024948;28;20490;-26
2021/07/28 01:27:47;;;;;;;5.83;5.00;;;28.80;64.00;;;;;;5024638;28;20495;-27
2021/07/28 01:30:19;;;;;;;5.40;4.03;;;28.90;65.40;;;;;;5024958;28;20461;-27
2021/07/28 01:32:50;;;;;;;5.70;5.20;;;28.90;65.00;;;;;;5024260;28;20451;-26
2021/07/28 01:35:23;;;;;;;6.13;4.70;;;28.90;63.70;;;;;;5013335;28;20459;-27
2021/07/28 01:37:54;;;;;;;4.63;4.23;;;28.90;63.70;;;;;;5015246;28;20482;-26
2021/07/28 01:40:27;;;;;;;15.23;14.03;;;28.80;63.40;;;;;;5016341;28;20646;-27
2021/07/28 01:42:57;;;;;;;9.87;9.10;;;28.80;63.40;;;;;;5005692;28;20880;-27
2021/07/28 01:45:29;;;;;;;146.93;132.03;;;28.70;62.80;;;;;;5004972;28;20857;-27
2021/07/28 01:47:59;;;;;;;64.87;59.63;;;28.70;62.30;;;;;;5005761;28;20457;-27
2021/07/28 01:50:30;;;;;;;110.00;100.37;;;28.70;61.20;;;;;;5005306;28;20486;-27
2021/07/28 01:53:04;;;;;;;10.87;9.97;;;28.70;60.80;;;;;;5022657;28;20482;-27
2021/07/28 01:55:36;;;;;;;4.60;4.20;;;28.70;59.80;;;;;;5024711;28;20506;-27
2021/07/28 01:58:07;;;;;;;5.03;4.43;;;28.60;60.70;;;;;;5021084;28;20486;-27
2021/07/28 02:00:39;;;;;;;5.07;4.67;;;28.50;61.00;;;;;;5022230;28;20467;-27
2021/07/28 02:03:10;;;;;;;6.40;4.53;;;28.60;59.40;;;;;;5005052;28;20520;-27
2021/07/28 02:05:42;;;;;;;4.60;4.20;;;28.60;58.70;;;;;;5004482;28;20517;-27
2021/07/28 02:08:15;;;;;;;4.47;4.10;;;28.60;57.70;;;;;;5005692;28;20466;-27
2021/07/28 02:10:49;;;;;;;4.40;4.03;;;28.60;57.70;;;;;;5006390;28;20469;-27
2021/07/28 02:13:21;;;;;;;4.70;4.30;;;28.60;58.80;;;;;;5024546;28;20505;-27
2021/07/28 02:15:52;;;;;;;5.30;4.80;;;28.50;59.10;;;;;;5014730;28;20483;-28
2021/07/28 02:18:27;;;;;;;5.27;4.77;;;28.40;59.40;;;;;;5005570;28;20509;-27
2021/07/28 02:21:01;;;;;;;5.20;4.70;;;28.30;57.90;;;;;;5004425;28;20477;-27
2021/07/28 02:23:32;;;;;;;4.50;4.10;;;28.20;58.40;;;;;;5004702;28;20475;-26
2021/07/28 02:26:05;;;;;;;4.57;4.17;;;28.10;61.30;;;;;;5003888;28;20553;-26
2021/07/28 02:28:35;;;;;;;4.80;4.40;;;28.00;60.30;;;;;;5004647;28;20501;-27
2021/07/28 02:31:07;;;;;;;5.67;4.73;;;27.90;62.20;;;;;;5018866;28;20489;-27
2021/07/28 02:33:37;;;;;;;5.40;4.90;;;28.00;60.60;;;;;;5012049;28;20461;-28
2021/07/28 02:36:08;;;;;;;6.17;5.20;;;27.90;58.60;;;;;;5021901;28;20520;-26
2021/07/28 02:38:39;;;;;;;6.00;5.23;;;27.90;58.90;;;;;;5020991;28;20482;-27
2021/07/28 02:41:12;;;;;;;4.83;4.33;;;27.90;59.10;;;;;;5017992;28;21163;-26
2021/07/28 02:43:43;;;;;;;5.57;5.07;;;27.80;60.70;;;;;;5020555;28;20500;-27
2021/07/28 02:46:14;;;;;;;6.30;5.67;;;27.80;60.70;;;;;;5014624;28;20561;-26
2021/07/28 02:48:45;;;;;;;5.20;4.80;;;27.70;61.40;;;;;;5014850;28;20455;-27
2021/07/28 02:51:16;;;;;;;5.00;4.40;;;27.60;60.50;;;;;;5013824;28;20452;-27
2021/07/28 02:53:47;;;;;;;4.70;4.30;;;27.60;61.20;;;;;;5014003;28;20473;-27
2021/07/28 02:56:20;;;;;;;4.90;4.30;;;27.70;59.80;;;;;;5012676;28;20453;-27
2021/07/28 02:58:50;;;;;;;4.63;4.23;;;27.60;59.70;;;;;;5012540;28;20453;-28
2021/07/28 03:01:21;;;;;;;5.17;3.90;;;27.60;60.60;;;;;;5016471;28;20515;-27
2021/07/28 03:03:52;;;;;;;5.50;4.20;;;27.60;59.30;;;;;;5016529;28;20778;-26
2021/07/28 03:06:23;;;;;;;4.90;4.40;;;27.60;59.30;;;;;;5020074;28;20489;-27
2021/07/28 03:08:54;;;;;;;5.27;4.67;;;27.60;60.00;;;;;;5012770;28;20459;-26
2021/07/28 03:11:27;;;;;;;4.53;4.10;;;27.40;60.30;;;;;;5020635;28;20624;-26
2021/07/28 03:13:59;;;;;;;4.60;4.20;;;27.30;59.90;;;;;;5022702;28;20480;-27
2021/07/28 03:16:30;;;;;;;4.37;3.93;;;27.10;61.90;;;;;;5018042;28;20476;-27
2021/07/28 03:19:01;;;;;;;4.20;3.80;;;27.00;63.90;;;;;;5020993;28;20533;-26
2021/07/28 03:21:32;;;;;;;3.93;3.37;;;26.80;64.40;;;;;;5022511;28;20484;-27
2021/07/28 03:24:03;;;;;;;5.60;3.80;;;26.70;63.30;;;;;;5012950;28;20459;-27
2021/07/28 03:26:36;;;;;;;4.40;4.00;;;26.50;65.70;;;;;;5011940;28;20961;-28
2021/07/28 03:29:07;;;;;;;4.97;4.33;;;26.40;65.80;;;;;;5020220;28;20574;-28
2021/07/28 03:31:38;;;;;;;4.10;3.67;;;26.30;66.40;;;;;;5022191;28;20460;-27
2021/07/28 03:34:09;;;;;;;4.07;3.67;;;26.20;67.50;;;;;;5004315;28;20448;-27
2021/07/28 03:36:40;;;;;;;3.63;3.20;;;26.10;67.70;;;;;;5011973;28;20467;-27
2021/07/28 03:39:11;;;;;;;3.87;3.47;;;26.10;68.80;;;;;;5016913;28;20487;-27
2021/07/28 03:41:44;;;;;;;4.53;3.70;;;26.10;69.60;;;;;;5003400;28;20470;-27
2021/07/28 03:44:14;;;;;;;5.20;3.83;;;26.10;70.40;;;;;;5003236;28;20808;-27
2021/07/28 03:46:45;;;;;;;4.10;3.33;;;26.00;71.30;;;;;;5019895;28;20487;-27
2021/07/28 03:49:16;;;;;;;4.07;3.33;;;25.80;73.20;;;;;;5018408;28;20968;-27
2021/07/28 03:51:47;;;;;;;3.90;3.60;;;25.60;73.30;;;;;;5016995;28;20515;-27
2021/07/28 03:54:18;;;;;;;3.80;3.40;;;25.50;73.60;;;;;;5022258;28;20482;-27
2021/07/28 03:56:51;;;;;;;4.50;4.10;;;25.40;75.30;;;;;;5020400;28;20480;-27
2021/07/28 03:59:22;;;;;;;3.50;3.20;;;25.30;76.30;;;;;;5006796;28;20439;-27
2021/07/28 04:01:54;;;;;;;4.47;4.03;;;25.20;77.30;;;;;;5025815;28;20549;-27
2021/07/28 04:04:26;;;;;;;3.37;3.07;;;25.00;78.40;;;;;;5020134;28;20466;-27
2021/07/28 04:06:57;;;;;;;3.80;3.50;;;25.00;78.00;;;;;;5015613;28;20494;-27
2021/07/28 04:09:28;;;;;;;5.03;4.17;;;24.90;78.30;;;;;;5019682;28;20482;-27
2021/07/28 04:12:00;;;;;;;4.50;3.63;;;24.80;79.40;;;;;;5015901;28;20496;-27
2021/07/28 04:14:31;;;;;;;4.50;4.00;;;24.70;80.50;;;;;;5015219;28;20487;-27
2021/07/28 04:17:02;;;;;;;5.90;4.23;;;24.60;81.30;;;;;;5024386;28;20453;-27
2021/07/28 04:19:33;;;;;;;4.30;3.90;;;24.50;81.50;;;;;;5025400;28;20484;-27
2021/07/28 04:22:04;;;;;;;4.67;4.23;;;24.40;82.10;;;;;;5017590;28;20461;-27
2021/07/28 04:24:35;;;;;;;5.90;4.00;;;24.40;83.60;;;;;;5023815;28;20458;-27
2021/07/28 04:27:08;;;;;;;5.10;4.60;;;24.30;83.60;;;;;;5015516;28;20935;-27
2021/07/28 04:29:39;;;;;;;7.63;4.50;;;24.30;82.80;;;;;;5017213;28;20485;-27
2021/07/28 04:32:10;;;;;;;5.20;4.70;;;24.20;83.10;;;;;;5026421;28;20772;-27
2021/07/28 04:34:41;;;;;;;4.83;4.43;;;24.20;83.30;;;;;;5026243;28;20481;-26
2021/07/28 04:37:12;;;;;;;5.00;4.27;;;24.10;83.70;;;;;;5024816;28;20481;-27
2021/07/28 04:39:43;;;;;;;5.30;4.80;;;24.00;82.80;;;;;;5022164;28;20454;-26
2021/07/28 04:42:16;;;;;;;5.60;4.10;;;24.00;84.00;;;;;;5018188;28;20764;-26
2021/07/28 04:44:47;;;;;;;4.87;4.40;;;23.90;84.20;;;;;;5024148;28;21144;-28
2021/07/28 04:47:18;;;;;;;5.83;5.33;;;23.80;84.40;;;;;;5019577;28;20486;-27
2021/07/28 04:49:49;;;;;;;5.80;5.20;;;23.70;83.20;;;;;;5006109;28;20485;-27
2021/07/28 04:52:24;;;;;;;5.37;4.87;;;23.70;82.50;;;;;;5023525;28;20488;-27
2021/07/28 04:54:55;;;;;;;5.97;5.30;;;23.70;81.70;;;;;;5034678;28;20865;-27
2021/07/28 04:57:28;;;;;;;6.00;5.43;;;23.60;80.60;;;;;;5025192;28;20450;-27
2021/07/28 04:59:59;;;;;;;6.03;4.60;;;23.60;81.10;;;;;;5025351;28;20457;-27
2021/07/28 05:02:30;;;;;;;6.70;4.30;;;23.60;80.40;;;;;;5011936;28;20501;-26
2021/07/28 05:05:01;;;;;;;6.03;4.50;;;23.50;81.10;;;;;;5032572;28;20802;-26
2021/07/28 05:07:34;;;;;;;6.30;4.70;;;23.40;81.10;;;;;;5013991;28;20532;-26
2021/07/28 05:10:05;;;;;;;4.10;3.80;;;23.30;82.20;;;;;;5024464;28;20501;-27
2021/07/28 05:12:38;;;;;;;5.03;4.13;;;23.20;82.20;;;;;;5017500;28;20469;-27
2021/07/28 05:15:10;;;;;;;5.77;5.10;;;23.10;82.50;;;;;;5034447;28;20545;-27
2021/07/28 05:17:41;;;;;;;5.90;4.57;;;23.00;83.10;;;;;;5016893;28;20463;-27
2021/07/28 05:20:13;;;;;;;4.50;4.10;;;22.90;83.80;;;;;;5009259;28;20479;-27
2021/07/28 05:22:44;;;;;;;5.23;4.47;;;22.80;85.10;;;;;;5016219;28;21177;-27
2021/07/28 05:25:16;;;;;;;6.23;4.60;;;22.80;84.70;;;;;;5015815;28;20429;-27
2021/07/28 05:27:49;;;;;;;4.20;3.80;;;22.70;86.30;;;;;;5024180;28;20854;-27
2021/07/28 05:30:20;;;;;;;5.93;4.57;;;22.60;85.40;;;;;;5020813;28;20446;-27
2021/07/28 05:32:51;;;;;;;5.20;4.70;;;22.60;86.00;;;;;;5018692;28;20790;-26
2021/07/28 05:35:22;;;;;;;5.60;4.27;;;22.60;86.10;;;;;;5018512;28;20476;-26
2021/07/28 05:37:59;;;;;;;5.77;4.00;;;22.60;86.10;;;;;;5005848;28;20464;-26
2021/07/28 05:40:30;;;;;;;7.40;3.90;;;22.60;85.80;;;;;;5007363;28;20426;-27
2021/07/28 05:43:03;;;;;;;5.40;4.13;;;22.50;86.50;;;;;;5020184;28;20478;-27
2021/07/28 05:45:34;;;;;;;4.40;4.00;;;22.40;87.20;;;;;;5024430;28;20524;-29
2021/07/28 05:48:05;;;;;;;5.30;3.60;;;22.30;88.10;;;;;;5010753;28;20525;-27
2021/07/28 05:50:36;;;;;;;5.13;4.10;;;22.20;89.30;;;;;;5016131;28;20440;-27
2021/07/28 05:53:07;;;;;;;4.67;3.80;;;22.10;90.00;;;;;;5009549;28;20537;-27
2021/07/28 05:55:38;;;;;;;4.30;3.90;;;22.10;90.50;;;;;;5021849;28;20439;-27
2021/07/28 05:58:11;;;;;;;5.83;3.90;;;22.00;90.60;;;;;;5010279;28;20495;-27
2021/07/28 06:00:41;;;;;;;3.90;3.13;;;22.10;90.80;;;;;;5021419;28;20829;-26
2021/07/28 06:03:12;;;;;;;4.07;3.60;;;22.00;91.20;;;;;;5019511;28;20468;-27
2021/07/28 06:05:44;;;;;;;5.57;4.00;;;22.00;91.50;;;;;;5023340;28;20513;-26
2021/07/28 06:08:15;;;;;;;5.83;3.60;;;21.90;91.80;;;;;;5023087;28;20467;-26
2021/07/28 06:10:48;;;;;;;4.50;4.00;;;21.80;92.20;;;;;;5017304;28;20433;-29
2021/07/28 06:13:20;;;;;;;5.10;3.67;;;21.80;92.80;;;;;;5011557;28;20460;-27
2021/07/28 06:15:53;;;;;;;4.10;3.00;;;21.70;93.20;;;;;;5024218;28;20538;-26
2021/07/28 06:18:24;;;;;;;4.30;3.67;;;21.70;93.50;;;;;;5015215;28;20451;-26
2021/07/28 06:20:55;;;;;;;5.20;4.10;;;21.60;94.00;;;;;;5004209;28;20465;-27
2021/07/28 06:23:26;;;;;;;4.10;3.23;;;21.60;94.50;;;;;;5022475;28;20449;-27
2021/07/28 06:25:57;;;;;;;4.20;3.80;;;21.50;94.90;;;;;;5004760;28;20449;-26
2021/07/28 06:28:30;;;;;;;5.27;3.07;;;21.50;95.30;;;;;;5013035;28;20593;-27
2021/07/28 06:31:01;;;;;;;3.80;3.07;;;21.40;95.90;;;;;;5021380;28;20444;-27
2021/07/28 06:33:32;;;;;;;4.53;3.30;;;21.40;96.40;;;;;;5021311;28;20528;-26
2021/07/28 06:36:03;;;;;;;4.40;3.27;;;21.30;97.10;;;;;;5022831;28;20495;-26
2021/07/28 06:38:34;;;;;;;8.13;3.67;;;21.30;97.40;;;;;;5022287;28;20460;-27
2021/07/28 06:41:06;;;;;;;3.60;3.30;;;21.30;97.50;;;;;;5007957;28;20478;-27
2021/07/28 06:43:38;;;;;;;5.70;3.70;;;21.20;98.20;;;;;;5006437;28;20479;-27
2021/07/28 06:46:09;;;;;;;3.70;3.30;;;21.20;98.50;;;;;;5016832;28;20457;-27
2021/07/28 06:48:40;;;;;;;4.50;4.10;;;21.10;99.10;;;;;;5023475;28;20556;-27
2021/07/28 06:51:11;;;;;;;4.03;3.50;;;21.10;99.50;;;;;;5008372;28;20495;-27
2021/07/28 06:53:42;;;;;;;4.37;3.40;;;21.00;99.50;;;;;;5013902;28;20939;-27
2021/07/28 06:56:14;;;;;;;5.70;3.20;;;21.00;99.90;;;;;;5014724;28;20451;-27
2021/07/28 06:58:47;;;;;;;5.03;3.60;;;21.00;99.90;;;;;;5021664;28;20454;-27
2021/07/28 07:01:18;;;;;;;5.13;3.00;;;21.00;99.90;;;;;;5023243;28;20445;-27
2021/07/28 07:03:49;;;;;;;3.77;3.13;;;21.00;99.90;;;;;;5022196;28;20554;-26
2021/07/28 07:06:27;;;;;;;3.50;3.20;;;20.90;99.90;;;;;;5014613;28;20447;-26
2021/07/28 07:08:58;;;;;;;3.20;2.90;;;20.90;99.90;;;;;;5003702;28;20912;-27
2021/07/28 07:11:29;;;;;;;6.57;3.10;;;20.90;99.90;;;;;;5017648;28;20460;-26
2021/07/28 07:14:01;;;;;;;4.43;3.03;;;20.80;99.90;;;;;;5022512;28;20662;-26
2021/07/28 07:16:32;;;;;;;4.50;3.07;;;20.80;99.90;;;;;;5021683;28;20785;-26
2021/07/28 07:19:04;;;;;;;2.83;2.60;;;20.80;99.90;;;;;;5013193;28;20451;-26
2021/07/28 07:21:34;;;;;;;4.47;3.17;;;20.70;99.90;;;;;;5002874;28;20478;-26
2021/07/28 07:24:06;;;;;;;4.20;3.10;;;20.70;99.90;;;;;;5020383;28;20424;-26
2021/07/28 07:26:37;;;;;;;4.00;3.60;;;20.60;99.90;;;;;;5022783;28;20504;-27
2021/07/28 07:29:09;;;;;;;4.60;3.20;;;20.50;99.90;;;;;;5021048;28;20496;-26
2021/07/28 07:31:41;;;;;;;4.30;3.07;;;20.50;99.90;;;;;;5021713;28;20451;-26
2021/07/28 07:34:12;;;;;;;4.00;3.00;;;20.50;99.90;;;;;;5019680;28;20462;-27
2021/07/28 07:36:43;;;;;;;3.63;2.77;;;20.50;99.90;;;;;;5021518;28;20559;-27
2021/07/28 07:39:14;;;;;;;5.20;3.37;;;20.50;99.90;;;;;;5023077;28;20481;-27
2021/07/28 07:41:45;;;;;;;3.50;3.20;;;20.50;99.90;;;;;;5022476;28;20450;-27
2021/07/28 07:44:19;;;;;;;4.90;3.10;;;20.40;99.90;;;;;;5021961;28;20471;-27
2021/07/28 07:46:50;;;;;;;3.60;2.70;;;20.30;99.90;;;;;;5022735;28;20440;-26
2021/07/28 07:49:21;;;;;;;4.40;3.00;;;20.30;99.90;;;;;;5019197;28;20888;-26
2021/07/28 07:51:52;;;;;;;3.67;3.03;;;20.30;99.90;;;;;;5017856;28;20448;-26
2021/07/28 07:54:23;;;;;;;3.60;3.00;;;20.30;99.90;;;;;;5021114;28;20429;-27
2021/07/28 07:56:54;;;;;;;3.93;2.67;;;20.30;99.90;;;;;;5022759;28;20500;-26
2021/07/28 07:59:27;;;;;;;5.10;2.60;;;20.20;99.90;;;;;;5019169;28;20869;-27
2021/07/28 08:01:57;;;;;;;6.37;3.13;;;20.10;99.90;;;;;;5015207;28;20464;-26
2021/07/28 08:04:29;;;;;;;4.53;3.13;;;20.10;99.90;;;;;;5022710;28;20458;-26
2021/07/28 08:07:00;;;;;;;3.97;3.20;;;20.10;99.90;;;;;;5014684;28;20429;-26
2021/07/28 08:09:31;;;;;;;4.70;3.17;;;20.00;99.90;;;;;;5003748;28;20634;-26
2021/07/28 08:12:01;;;;;;;6.30;3.83;;;19.90;99.90;;;;;;5018255;28;20459;-27
2021/07/28 08:14:34;;;;;;;4.90;3.03;;;19.90;99.90;;;;;;5019762;28;22368;-26
2021/07/28 08:17:06;;;;;;;2.67;2.47;;;19.90;99.90;;;;;;5019865;28;20421;-26
2021/07/28 08:19:37;;;;;;;3.53;3.13;;;19.90;99.90;;;;;;5016616;28;20813;-26
2021/07/28 08:22:08;;;;;;;3.60;2.80;;;19.90;99.90;;;;;;5003100;28;20515;-26
2021/07/28 08:24:39;;;;;;;3.60;3.23;;;19.80;99.90;;;;;;5020072;28;20460;-26
2021/07/28 08:27:10;;;;;;;2.80;2.50;;;19.80;99.90;;;;;;5020661;28;20444;-26
2021/07/28 08:29:42;;;;;;;4.60;3.70;;;19.80;99.90;;;;;;5020492;28;20468;-25
2021/07/28 08:32:13;;;;;;;3.03;2.43;;;19.80;99.90;;;;;;5003648;28;20479;-26
2021/07/28 08:34:44;;;;;;;3.90;3.27;;;19.70;99.90;;;;;;5007176;28;20443;-26
2021/07/28 08:37:15;;;;;;;3.73;3.00;;;19.70;99.90;;;;;;5021680;28;20461;-26
2021/07/28 08:39:46;;;;;;;3.30;3.00;;;19.60;99.90;;;;;;5004685;28;20490;-27
2021/07/28 08:42:20;;;;;;;3.53;3.17;;;19.60;99.90;;;;;;5014546;28;20445;-26
2021/07/28 08:44:53;;;;;;;4.43;3.23;;;19.60;99.90;;;;;;5020086;28;20509;-26
2021/07/28 08:47:24;;;;;;;3.57;3.03;;;19.60;99.90;;;;;;5017493;28;20494;-26
2021/07/28 08:49:56;;;;;;;5.83;3.30;;;19.60;99.90;;;;;;5021280;28;20481;-25
2021/07/28 08:52:29;;;;;;;3.20;2.80;;;19.60;99.90;;;;;;5014446;28;20886;-26
2021/07/28 08:54:59;;;;;;;4.33;3.43;;;19.60;99.90;;;;;;5019769;28;20581;-26
2021/07/28 08:57:33;;;;;;;4.20;3.00;;;19.50;99.90;;;;;;5019851;28;20508;-26
2021/07/28 09:00:09;;;;;;;7.50;3.20;;;19.50;99.90;;;;;;5023173;28;20904;-26
2021/07/28 09:02:41;;;;;;;3.73;3.20;;;19.40;99.90;;;;;;5023753;28;20949;-26
2021/07/28 09:05:13;;;;;;;3.90;3.30;;;19.40;99.90;;;;;;5023429;28;20436;-26
2021/07/28 09:07:44;;;;;;;3.70;3.40;;;19.30;99.90;;;;;;5022544;28;20481;-26
2021/07/28 09:10:15;;;;;;;4.00;3.60;;;19.30;99.90;;;;;;5016840;28;20545;-26
2021/07/28 09:12:47;;;;;;;5.17;3.13;;;19.30;99.90;;;;;;5006159;28;20459;-26
2021/07/28 09:15:19;;;;;;;3.17;2.80;;;19.30;99.90;;;;;;5020131;28;20477;-27
2021/07/28 09:17:50;;;;;;;6.00;3.60;;;19.30;99.90;;;;;;5022513;28;20448;-25
2021/07/28 09:20:28;;;;;;;3.67;2.83;;;19.30;99.90;;;;;;5022586;28;20412;-26
2021/07/28 09:23:12;;;;;;;3.10;2.80;;;19.20;99.90;;;;;;5021981;28;20500;-25
2021/07/28 09:25:43;;;;;;;3.57;3.27;;;19.10;99.90;;;;;;5022599;28;20478;-25
2021/07/28 09:28:21;;;;;;;3.20;2.90;;;19.10;99.90;;;;;;5021943;28;20563;-25
2021/07/28 09:30:57;;;;;;;3.03;2.73;;;19.00;99.90;;;;;;5023482;28;20504;-26
2021/07/28 09:33:29;;;;;;;4.23;3.50;;;19.00;99.90;;;;;;5019907;28;20472;-25
2021/07/28 09:36:23;;;;;;;3.90;3.00;;;19.10;99.90;;;;;;5020578;28;20549;-26
2021/07/28 09:38:56;;;;;;;6.00;3.60;;;19.00;99.90;;;;;;5021142;28;20534;-26
2021/07/28 09:41:28;;;;;;;3.63;2.90;;;18.90;99.90;;;;;;5021859;28;20446;-26
2021/07/28 09:44:02;;;;;;;6.67;3.30;;;18.90;99.90;;;;;;5016287;28;20529;-26
2021/07/28 09:46:38;;;;;;;3.37;2.80;;;18.90;99.90;;;;;;5021415;28;20505;-25
2021/07/28 09:49:11;;;;;;;3.50;3.10;;;18.90;99.90;;;;;;5024824;28;20486;-26
2021/07/28 09:51:44;;;;;;;7.23;3.33;;;18.80;99.90;;;;;;5008153;28;20474;-25
2021/07/28 09:54:16;;;;;;;3.20;2.70;;;18.80;99.90;;;;;;5025277;28;20454;-27
2021/07/28 09:56:50;;;;;;;7.97;3.50;;;18.80;99.90;;;;;;5018130;28;20454;-26
2021/07/28 09:59:22;;;;;;;4.70;3.93;;;18.70;99.90;;;;;;5005621;28;20479;-27
2021/07/28 10:01:55;;;;;;;4.03;3.50;;;18.70;99.90;;;;;;5016514;28;20465;-26
2021/07/28 10:04:31;;;;;;;3.67;3.37;;;18.60;99.90;;;;;;5023908;28;20483;-25
2021/07/28 10:07:03;;;;;;;3.50;2.70;;;18.60;99.90;;;;;;5019431;28;20443;-26
2021/07/28 10:09:38;;;;;;;3.80;3.17;;;18.50;99.90;;;;;;5008763;28;20518;-26
2021/07/28 10:12:09;;;;;;;7.10;3.17;;;18.50;99.90;;;;;;5021171;28;20442;-26
2021/07/28 10:14:43;;;;;;;4.83;3.53;;;18.40;99.90;;;;;;5024862;28;20897;-26
2021/07/28 10:17:16;;;;;;;4.07;3.10;;;18.30;99.90;;;;;;5024234;28;20525;-26
2021/07/28 10:19:49;;;;;;;4.10;3.70;;;18.30;99.90;;;;;;5023538;28;20471;-26
2021/07/28 10:22:33;;;;;;;3.03;2.73;;;18.20;99.90;;;;;;5016329;28;20510;-26
2021/07/28 10:25:07;;;;;;;4.83;3.20;;;18.20;99.90;;;;;;5007926;28;20490;-26
2021/07/28 10:27:42;;;;;;;3.57;3.10;;;18.20;99.90;;;;;;5012547;28;20478;-27
2021/07/28 10:30:15;;;;;;;4.37;3.47;;;18.20;99.90;;;;;;5004625;28;20494;-26
2021/07/28 10:32:48;;;;;;;8.43;4.63;;;18.20;99.90;;;;;;5013822;28;20466;-26
2021/07/28 10:35:24;;;;;;;6.63;3.30;;;18.20;99.90;;;;;;5014620;28;20478;-26
2021/07/28 10:37:56;;;;;;;3.77;3.30;;;18.20;99.90;;;;;;5020546;28;20450;-26
2021/07/28 10:40:58;;;;;;;3.90;3.30;;;18.10;99.90;;;;;;5020344;28;20449;-27
2021/07/28 10:43:30;;;;;;;4.70;3.73;;;18.10;99.90;;;;;;5009435;28;20485;-26
2021/07/28 10:46:01;;;;;;;5.07;3.50;;;18.10;99.90;;;;;;5017413;28;20430;-26
2021/07/28 10:49:01;;;;;;;5.57;3.07;;;18.00;99.90;;;;;;5020666;28;20457;-26
2021/07/28 10:51:56;;;;;;;4.60;3.50;;;17.90;99.90;;;;;;5019567;28;20442;-27
2021/07/28 10:55:03;;;;;;;4.30;3.33;;;17.90;99.90;;;;;;4990865;28;20991;-26
2021/07/28 10:58:18;;;;;;;4.60;3.20;;;18.00;99.90;;;;;;5004724;28;20475;-26
2021/07/28 11:00:58;;;;;;;4.33;3.60;;;17.90;99.90;;;;;;5022598;28;20474;-27
2021/07/28 11:03:47;;;;;;;4.33;3.57;;;17.80;99.90;;;;;;5021393;28;20458;-27
2021/07/28 11:06:24;;;;;;;5.03;3.67;;;17.80;99.90;;;;;;5023536;28;20434;-26
2021/07/28 11:08:55;;;;;;;4.23;3.07;;;17.80;99.90;;;;;;5023048;28;20545;-26
2021/07/28 11:11:30;;;;;;;6.47;3.93;;;17.70;99.90;;;;;;5020110;28;20450;-26
2021/07/28 11:14:05;;;;;;;4.20;3.80;;;17.70;99.90;;;;;;5017849;28;20574;-25
2021/07/28 11:16:39;;;;;;;7.20;3.97;;;17.70;99.90;;;;;;5010006;28;20480;-26
2021/07/28 11:19:10;;;;;;;4.00;3.50;;;17.70;99.90;;;;;;5022796;28;20458;-26
2021/07/28 11:21:42;;;;;;;3.20;2.90;;;17.60;99.90;;;;;;5022853;28;20537;-26
2021/07/28 11:24:13;;;;;;;3.97;3.40;;;17.60;99.90;;;;;;5022887;28;20515;-25
2021/07/28 11:26:45;;;;;;;8.73;4.10;;;17.40;99.90;;;;;;5014717;28;20429;-26
2021/07/28 11:29:20;;;;;;;5.93;3.57;;;17.50;99.90;;;;;;5014905;28;20512;-26
2021/07/28 11:31:54;;;;;;;4.93;4.30;;;17.40;99.90;;;;;;5020338;28;20450;-25
2021/07/28 11:34:58;;;;;;;5.57;4.13;;;17.40;99.90;;;;;;5022259;28;20521;-25
2021/07/28 11:37:30;;;;;;;5.90;3.60;;;17.40;99.90;;;;;;5018728;28;20446;-25
2021/07/28 11:40:02;;;;;;;3.93;3.23;;;17.40;99.90;;;;;;5019194;28;20421;-26
2021/07/28 11:42:33;;;;;;;4.17;3.77;;;17.40;99.90;;;;;;5017352;28;20450;-25
2021/07/28 11:45:04;;;;;;;6.20;4.30;;;17.30;99.90;;;;;;5017795;28;20470;-26
2021/07/28 11:47:35;;;;;;;5.20;4.70;;;17.30;99.90;;;;;;5005584;28;20482;-25
2021/07/28 11:50:07;;;;;;;4.10;3.30;;;17.20;99.90;;;;;;5020928;28;20486;-25
2021/07/28 11:52:50;;;;;;;5.87;3.60;;;17.20;99.90;;;;;;5022129;28;20449;-26
2021/07/28 11:55:24;;;;;;;4.93;3.80;;;17.10;99.90;;;;;;5022397;28;20470;-26
2021/07/28 11:57:55;;;;;;;5.67;4.77;;;17.20;99.90;;;;;;5019290;28;20458;-26
2021/07/28 12:00:32;;;;;;;4.93;3.20;;;17.10;99.90;;;;;;5021455;28;20535;-26
2021/07/28 12:03:25;;;;;;;4.67;3.70;;;17.10;99.90;;;;;;5017724;28;20446;-25
2021/07/28 12:06:01;;;;;;;5.33;4.30;;;17.10;99.90;;;;;;5003954;28;20533;-26
2021/07/28 12:08:36;;;;;;;5.27;4.33;;;17.00;99.90;;;;;;5017010;28;20865;-26
2021/07/28 12:11:08;;;;;;;5.20;3.73;;;17.00;99.90;;;;;;5019032;28;20540;-26
2021/07/28 12:13:44;;;;;;;5.17;3.63;;;17.00;99.90;;;;;;5019520;28;20443;-26
2021/07/28 12:16:15;;;;;;;6.60;4.10;;;17.00;99.90;;;;;;5022017;28;20533;-26
2021/07/28 12:18:49;;;;;;;5.37;4.17;;;17.00;99.90;;;;;;5021661;28;20465;-25
2021/07/28 12:21:20;;;;;;;4.47;3.60;;;17.00;99.90;;;;;;5018844;28;20454;-25
2021/07/28 12:23:54;;;;;;;5.67;4.20;;;16.90;99.90;;;;;;5002763;28;20450;-25
2021/07/28 12:26:46;;;;;;;4.20;3.77;;;16.80;99.90;;;;;;5009277;28;20462;-26
2021/07/28 12:29:34;;;;;;;4.17;3.70;;;16.80;99.90;;;;;;5004267;28;20447;-26
2021/07/28 12:32:16;;;;;;;5.20;4.10;;;16.80;99.90;;;;;;5010379;28;20466;-28
2021/07/28 12:34:47;;;;;;;5.77;4.50;;;16.80;99.90;;;;;;5015127;28;20447;-26
2021/07/28 12:37:21;;;;;;;5.87;4.07;;;16.70;99.90;;;;;;5014869;28;20454;-25
2021/07/28 12:39:58;;;;;;;5.33;4.30;;;16.70;99.90;;;;;;5021832;28;20523;-25
2021/07/28 12:42:32;;;;;;;8.17;4.87;;;16.70;99.90;;;;;;5021061;28;20458;-25
2021/07/28 12:45:11;;;;;;;7.43;4.87;;;16.60;99.90;;;;;;5024408;28;20516;-25
2021/07/28 12:47:42;;;;;;;5.60;3.83;;;16.60;99.90;;;;;;5024223;28;20450;-25
2021/07/28 12:50:13;;;;;;;5.50;4.10;;;16.60;99.90;;;;;;5025397;28;20488;-25
2021/07/28 12:52:45;;;;;;;7.43;4.30;;;16.60;99.90;;;;;;5022619;28;20455;-26
2021/07/28 12:55:17;;;;;;;6.03;4.70;;;16.60;99.90;;;;;;5021960;28;20538;-26
2021/07/28 12:57:48;;;;;;;6.83;4.80;;;16.50;99.90;;;;;;5014968;28;20482;-26
2021/07/28 13:00:20;;;;;;;5.20;4.00;;;16.40;99.90;;;;;;5019190;28;20488;-26
2021/07/28 13:02:52;;;;;;;5.90;4.87;;;16.50;99.90;;;;;;5011288;28;20831;-26
2021/07/28 13:05:25;;;;;;;6.50;4.07;;;16.40;99.90;;;;;;5014337;28;20508;-27
2021/07/28 13:08:02;;;;;;;4.57;4.17;;;16.50;99.90;;;;;;5025278;28;20469;-26
2021/07/28 13:10:35;;;;;;;7.57;4.57;;;16.50;99.90;;;;;;5025071;28;20876;-26
2021/07/28 13:13:07;;;;;;;4.70;4.10;;;16.50;99.90;;;;;;5024087;28;20545;-26
2021/07/28 13:15:40;;;;;;;6.00;4.07;;;16.60;99.90;;;;;;5009919;28;20451;-27
2021/07/28 13:18:11;;;;;;;6.27;4.60;;;16.60;99.90;;;;;;5010591;28;20548;-27